createdAt,value
2018-09-05T00:04:50.149Z,3.32
2018-09-05T00:15:53.041Z,3.32
2018-09-05T00:26:55.692Z,3.31
2018-09-05T00:37:58.456Z,3.31
2018-09-05T00:49:00.263Z,3.31
2018-09-05T01:00:02.494Z,3.30
2018-09-05T01:11:03.486Z,3.30
2018-09-05T01:22:06.364Z,3.30
2018-09-05T01:33:07.451Z,3.30
2018-09-05T01:44:10.219Z,3.30
2018-09-05T01:55:12.369Z,3.30
2018-09-05T02:06:13.971Z,3.30
2018-09-05T02:17:15.878Z,3.30
2018-09-05T02:28:18.588Z,3.29
2018-09-05T02:39:22.068Z,3.29
2018-09-05T02:50:25.078Z,3.29
2018-09-05T03:01:27.851Z,3.29
2018-09-05T03:12:30.833Z,3.29
2018-09-05T03:23:32.897Z,3.29
2018-09-05T03:34:35.000Z,3.28
2018-09-05T03:45:34.176Z,3.28
2018-09-05T03:56:36.297Z,3.28
2018-09-05T04:07:36.904Z,3.28
2018-09-05T04:18:39.481Z,3.28
2018-09-05T04:29:42.468Z,3.28
2018-09-05T04:40:44.093Z,3.27
2018-09-05T04:51:35.739Z,3.27
2018-09-05T05:02:35.343Z,3.27
2018-09-05T05:13:34.490Z,3.26
2018-09-05T05:24:34.037Z,3.27
2018-09-05T05:35:32.383Z,3.27
2018-09-05T05:46:32.619Z,3.28
2018-09-05T05:57:33.431Z,3.29
2018-09-05T06:08:35.246Z,3.30
2018-09-05T06:19:36.245Z,3.30
2018-09-05T06:30:38.940Z,3.30
2018-09-05T06:41:40.197Z,3.30
2018-09-05T06:52:42.249Z,3.30
2018-09-05T07:03:43.572Z,3.31
2018-09-05T07:14:44.782Z,3.32
2018-09-05T07:25:40.115Z,3.33
2018-09-05T07:36:44.326Z,3.33
2018-09-05T07:47:45.968Z,3.34
2018-09-05T07:58:47.840Z,3.34
2018-09-05T08:09:50.778Z,3.34
2018-09-05T08:20:53.490Z,3.36
2018-09-05T08:31:56.246Z,3.36
2018-09-05T08:42:59.552Z,3.37
2018-09-05T08:54:02.300Z,3.37
2018-09-05T09:05:04.749Z,3.38
2018-09-05T09:16:07.922Z,3.39
2018-09-05T09:27:09.824Z,3.40
2018-09-05T09:38:12.628Z,3.40
2018-09-05T09:49:14.548Z,3.41
2018-09-05T10:00:17.287Z,3.42
2018-09-05T10:11:19.638Z,3.43
2018-09-05T10:22:21.163Z,3.42
2018-09-05T10:33:18.954Z,3.41
2018-09-05T10:44:22.573Z,3.40
2018-09-05T10:55:23.573Z,3.42
2018-09-05T11:06:26.416Z,3.40
2018-09-05T11:17:26.560Z,3.42
2018-09-05T11:28:29.281Z,3.41
2018-09-05T11:39:31.308Z,3.40
2018-09-05T11:50:32.911Z,3.40
2018-09-05T12:01:33.812Z,3.42
2018-09-05T12:12:30.752Z,3.41
2018-09-05T12:23:23.288Z,3.40
2018-09-05T12:34:05.601Z,3.40
2018-09-05T12:44:47.570Z,3.42
2018-09-05T12:55:46.331Z,3.41
2018-09-05T13:06:40.918Z,3.41
2018-09-05T13:17:42.823Z,3.40
2018-09-05T13:28:43.514Z,3.40
2018-09-05T13:39:44.633Z,3.41
2018-09-05T13:50:48.468Z,3.40
2018-09-05T14:01:54.446Z,3.40
2018-09-05T14:12:56.692Z,3.40
2018-09-05T14:23:52.550Z,3.40
2018-09-05T14:34:54.237Z,3.40
2018-09-05T14:45:48.711Z,3.41
2018-09-05T14:56:50.579Z,3.40
2018-09-05T15:07:48.232Z,3.40
2018-09-05T15:18:40.937Z,3.39
2018-09-05T15:29:40.679Z,3.44
2018-09-05T15:40:39.384Z,3.44
2018-09-05T15:51:37.052Z,3.44
2018-09-05T16:02:36.953Z,3.44
2018-09-05T16:13:35.616Z,3.43
2018-09-05T16:24:35.917Z,3.43
2018-09-05T16:35:35.939Z,3.43
2018-09-05T16:46:25.766Z,3.42
2018-09-05T16:57:23.096Z,3.41
2018-09-05T17:08:18.226Z,3.40
2018-09-05T17:19:12.689Z,3.40
2018-09-05T17:30:02.973Z,3.39
2018-09-05T17:40:56.981Z,3.39
2018-09-05T17:51:48.704Z,3.39
2018-09-05T18:02:45.997Z,3.39
2018-09-05T18:13:45.641Z,3.38
2018-09-05T18:24:45.131Z,3.38
2018-09-05T18:35:40.823Z,3.37
2018-09-05T18:46:42.154Z,3.37
2018-09-05T18:57:39.648Z,3.37
2018-09-05T19:08:40.502Z,3.37
2018-09-05T19:19:35.553Z,3.37
2018-09-05T19:30:32.547Z,3.36
2018-09-05T19:41:26.176Z,3.36
2018-09-05T19:52:20.091Z,3.36
2018-09-05T20:03:09.945Z,3.35
2018-09-05T20:14:14.942Z,3.33
2018-09-05T20:25:12.581Z,3.34
2018-09-05T20:35:59.338Z,3.34
2018-09-05T20:46:52.650Z,3.34
2018-09-05T20:57:47.208Z,3.34
2018-09-05T21:08:42.101Z,3.33
2018-09-05T21:19:37.564Z,3.33
2018-09-05T21:30:34.638Z,3.33
2018-09-05T21:41:33.616Z,3.33
2018-09-05T21:52:35.956Z,3.32
2018-09-05T22:03:38.505Z,3.32
2018-09-05T22:14:33.832Z,3.32
2018-09-05T22:25:34.701Z,3.32
2018-09-05T22:36:34.607Z,3.31
2018-09-05T22:47:36.142Z,3.31
2018-09-05T22:58:36.838Z,3.31
2018-09-05T23:09:37.147Z,3.30
2018-09-05T23:20:38.582Z,3.30
2018-09-05T23:31:40.679Z,3.30
2018-09-05T23:42:43.229Z,3.30
2018-09-05T23:53:44.886Z,3.30
